sensor_id;sensor_type;location;lat;lon;timestamp;pressure;altitude;pressure_sealevel;temperature;humidity
75604;BME280;64187;51.010;13.792;2023-12-04T00:00:23;100844.47;;;-1.86;77.48
75604;BME280;64187;51.010;13.792;2023-12-04T00:05:22;100852.19;;;-1.83;78.04
75604;BME280;64187;51.010;13.792;2023-12-04T00:10:21;100850.31;;;-2.28;79.39
75604;BME280;64187;51.010;13.792;2023-12-04T00:15:20;100856.97;;;-2.24;79.36
75604;BME280;64187;51.010;13.792;2023-12-04T00:20:20;100855.44;;;-2.27;79.53
75604;BME280;64187;51.010;13.792;2023-12-04T00:25:19;100850.94;;;-2.54;79.45
75604;BME280;64187;51.010;13.792;2023-12-04T00:30:17;100844.34;;;-2.40;80.41
75604;BME280;64187;51.010;13.792;2023-12-04T00:35:16;100838.59;;;-2.83;81.38
75604;BME280;64187;51.010;13.792;2023-12-04T00:40:15;100838.31;;;-2.32;79.21
75604;BME280;64187;51.010;13.792;2023-12-04T00:45:14;100830.25;;;-2.41;79.54
75604;BME280;64187;51.010;13.792;2023-12-04T00:50:13;100836.66;;;-2.33;80.09
75604;BME280;64187;51.010;13.792;2023-12-04T00:55:13;100831.50;;;-2.07;77.06
75604;BME280;64187;51.010;13.792;2023-12-04T01:00:12;100824.66;;;-2.10;76.86
75604;BME280;64187;51.010;13.792;2023-12-04T01:05:11;100819.88;;;-2.34;76.67
75604;BME280;64187;51.010;13.792;2023-12-04T01:10:10;100823.31;;;-2.61;77.56
75604;BME280;64187;51.010;13.792;2023-12-04T01:15:09;100820.97;;;-2.64;79.05
75604;BME280;64187;51.010;13.792;2023-12-04T01:20:08;100816.97;;;-2.68;77.94
75604;BME280;64187;51.010;13.792;2023-12-04T01:25:08;100831.00;;;-2.58;77.09
75604;BME280;64187;51.010;13.792;2023-12-04T01:30:07;100842.78;;;-2.80;77.93
75604;BME280;64187;51.010;13.792;2023-12-04T01:35:07;100845.56;;;-2.82;77.41
75604;BME280;64187;51.010;13.792;2023-12-04T01:40:07;100844.44;;;-2.89;76.24
75604;BME280;64187;51.010;13.792;2023-12-04T01:45:06;100844.91;;;-3.22;77.12
75604;BME280;64187;51.010;13.792;2023-12-04T01:50:06;100842.94;;;-3.01;76.16
75604;BME280;64187;51.010;13.792;2023-12-04T01:55:07;100841.84;;;-3.37;77.70
75604;BME280;64187;51.010;13.792;2023-12-04T02:00:07;100841.84;;;-3.37;78.87
75604;BME280;64187;51.010;13.792;2023-12-04T02:05:11;100836.56;;;-3.47;78.23
75604;BME280;64187;51.010;13.792;2023-12-04T02:10:10;100822.06;;;-3.33;77.12
75604;BME280;64187;51.010;13.792;2023-12-04T02:15:09;100824.81;;;-3.74;79.49
75604;BME280;64187;51.010;13.792;2023-12-04T02:20:08;100807.44;;;-3.66;78.26
75604;BME280;64187;51.010;13.792;2023-12-04T02:25:08;100797.53;;;-3.16;75.59
75604;BME280;64187;51.010;13.792;2023-12-04T02:30:29;100796.03;;;-2.71;73.78
75604;BME280;64187;51.010;13.792;2023-12-04T02:35:32;100783.88;;;-3.40;75.84
75604;BME280;64187;51.010;13.792;2023-12-04T02:40:32;100796.84;;;-3.66;78.48
75604;BME280;64187;51.010;13.792;2023-12-04T02:45:31;100779.28;;;-3.19;76.81
75604;BME280;64187;51.010;13.792;2023-12-04T02:50:30;100768.56;;;-3.17;77.59
75604;BME280;64187;51.010;13.792;2023-12-04T02:55:29;100752.44;;;-2.87;78.10
75604;BME280;64187;51.010;13.792;2023-12-04T03:00:28;100742.59;;;-2.67;77.17
75604;BME280;64187;51.010;13.792;2023-12-04T03:05:27;100735.59;;;-2.86;77.87
75604;BME280;64187;51.010;13.792;2023-12-04T03:10:25;100734.22;;;-2.99;77.69
75604;BME280;64187;51.010;13.792;2023-12-04T03:15:25;100730.34;;;-3.05;78.45
75604;BME280;64187;51.010;13.792;2023-12-04T03:20:27;100728.94;;;-3.09;79.71
75604;BME280;64187;51.010;13.792;2023-12-04T03:25:25;100722.75;;;-2.80;78.43
75604;BME280;64187;51.010;13.792;2023-12-04T03:30:25;100724.72;;;-2.92;78.32
75604;BME280;64187;51.010;13.792;2023-12-04T03:35:23;100725.03;;;-3.05;79.17
75604;BME280;64187;51.010;13.792;2023-12-04T03:40:22;100719.53;;;-3.31;80.73
75604;BME280;64187;51.010;13.792;2023-12-04T03:45:21;100704.03;;;-3.16;81.33
75604;BME280;64187;51.010;13.792;2023-12-04T03:50:20;100703.50;;;-3.30;81.71
75604;BME280;64187;51.010;13.792;2023-12-04T03:55:19;100707.31;;;-3.61;83.18
75604;BME280;64187;51.010;13.792;2023-12-04T04:00:18;100706.56;;;-3.25;82.66
75604;BME280;64187;51.010;13.792;2023-12-04T04:05:17;100712.16;;;-3.28;82.14
75604;BME280;64187;51.010;13.792;2023-12-04T04:10:16;100708.50;;;-3.27;82.23
75604;BME280;64187;51.010;13.792;2023-12-04T04:15:15;100694.91;;;-2.94;80.97
75604;BME280;64187;51.010;13.792;2023-12-04T04:20:14;100699.91;;;-2.91;80.77
75604;BME280;64187;51.010;13.792;2023-12-04T04:25:13;100697.06;;;-3.17;81.43
75604;BME280;64187;51.010;13.792;2023-12-04T04:30:12;100693.53;;;-3.08;81.01
75604;BME280;64187;51.010;13.792;2023-12-04T04:35:12;100686.72;;;-3.11;81.49
75604;BME280;64187;51.010;13.792;2023-12-04T04:40:11;100673.19;;;-2.98;80.91
75604;BME280;64187;51.010;13.792;2023-12-04T04:45:10;100666.16;;;-2.62;79.12
75604;BME280;64187;51.010;13.792;2023-12-04T04:50:09;100663.34;;;-3.15;81.31
75604;BME280;64187;51.010;13.792;2023-12-04T04:55:08;100661.72;;;-2.71;79.63
75604;BME280;64187;51.010;13.792;2023-12-04T05:00:07;100656.19;;;-3.05;81.38
75604;BME280;64187;51.010;13.792;2023-12-04T05:05:06;100656.94;;;-2.85;81.05
75604;BME280;64187;51.010;13.792;2023-12-04T05:10:06;100658.25;;;-2.99;81.36
75604;BME280;64187;51.010;13.792;2023-12-04T05:15:06;100663.84;;;-2.74;80.39
75604;BME280;64187;51.010;13.792;2023-12-04T05:20:06;100668.03;;;-2.72;80.62
75604;BME280;64187;51.010;13.792;2023-12-04T05:25:06;100663.13;;;-2.49;79.08
75604;BME280;64187;51.010;13.792;2023-12-04T05:30:06;100651.06;;;4.97;100.00
75604;BME280;64187;51.010;13.792;2023-12-04T05:35:05;100654.59;;;6.01;69.13
75604;BME280;64187;51.010;13.792;2023-12-04T05:40:05;100632.69;;;6.57;61.39
75604;BME280;64187;51.010;13.792;2023-12-04T05:45:04;100629.38;;;5.95;60.22
75604;BME280;64187;51.010;13.792;2023-12-04T05:50:04;100607.91;;;6.42;56.72
75604;BME280;64187;51.010;13.792;2023-12-04T05:55:03;100610.78;;;6.07;55.64
75604;BME280;64187;51.010;13.792;2023-12-04T06:00:02;100595.91;;;4.53;59.60
75604;BME280;64187;51.010;13.792;2023-12-04T06:05:01;100584.28;;;5.09;58.05
75604;BME280;64187;51.010;13.792;2023-12-04T06:10:03;100565.00;;;1.88;57.63
75604;BME280;64187;51.010;13.792;2023-12-04T06:15:05;100578.09;;;-0.40;66.32
75604;BME280;64187;51.010;13.792;2023-12-04T06:20:05;100577.09;;;-1.48;72.36
75604;BME280;64187;51.010;13.792;2023-12-04T06:25:05;100582.34;;;-1.83;74.02
75604;BME280;64187;51.010;13.792;2023-12-04T06:30:05;100581.66;;;-2.11;75.90
75604;BME280;64187;51.010;13.792;2023-12-04T06:35:06;100575.47;;;-2.38;76.65
75604;BME280;64187;51.010;13.792;2023-12-04T06:40:05;100574.22;;;-2.07;75.30
75604;BME280;64187;51.010;13.792;2023-12-04T06:45:07;100584.09;;;-2.35;77.07
75604;BME280;64187;51.010;13.792;2023-12-04T06:50:06;100572.72;;;-2.10;75.51
75604;BME280;64187;51.010;13.792;2023-12-04T06:55:06;100581.16;;;-1.88;74.93
75604;BME280;64187;51.010;13.792;2023-12-04T07:00:05;100574.38;;;-2.09;75.18
75604;BME280;64187;51.010;13.792;2023-12-04T07:05:20;100580.22;;;-2.05;74.47
75604;BME280;64187;51.010;13.792;2023-12-04T07:10:20;100589.78;;;-2.30;76.76
75604;BME280;64187;51.010;13.792;2023-12-04T07:15:19;100598.19;;;-2.35;76.74
75604;BME280;64187;51.010;13.792;2023-12-04T07:20:17;100594.00;;;-2.20;74.91
75604;BME280;64187;51.010;13.792;2023-12-04T07:25:17;100580.84;;;-1.85;74.39
75604;BME280;64187;51.010;13.792;2023-12-04T07:30:16;100571.78;;;-2.01;74.69
75604;BME280;64187;51.010;13.792;2023-12-04T07:35:17;100560.13;;;-1.82;73.70
75604;BME280;64187;51.010;13.792;2023-12-04T07:40:16;100566.66;;;-2.20;74.79
75604;BME280;64187;51.010;13.792;2023-12-04T07:45:15;100571.84;;;-1.92;73.69
75604;BME280;64187;51.010;13.792;2023-12-04T07:50:14;100561.59;;;-1.87;74.08
75604;BME280;64187;51.010;13.792;2023-12-04T07:55:13;100563.50;;;-1.71;72.99
75604;BME280;64187;51.010;13.792;2023-12-04T08:00:13;100550.31;;;-1.89;72.50
75604;BME280;64187;51.010;13.792;2023-12-04T08:05:12;100548.66;;;-1.90;73.80
75604;BME280;64187;51.010;13.792;2023-12-04T08:10:12;100554.44;;;-1.69;73.13
75604;BME280;64187;51.010;13.792;2023-12-04T08:15:11;100537.13;;;-1.81;72.90
75604;BME280;64187;51.010;13.792;2023-12-04T08:20:10;100551.06;;;-1.45;71.97
75604;BME280;64187;51.010;13.792;2023-12-04T08:25:19;100547.22;;;-1.50;71.31
75604;BME280;64187;51.010;13.792;2023-12-04T08:30:18;100536.69;;;-1.34;71.04
75604;BME280;64187;51.010;13.792;2023-12-04T08:35:17;100541.16;;;-1.35;71.27
75604;BME280;64187;51.010;13.792;2023-12-04T08:40:16;100526.47;;;-1.13;70.47
75604;BME280;64187;51.010;13.792;2023-12-04T08:45:15;100531.97;;;-0.98;70.66
75604;BME280;64187;51.010;13.792;2023-12-04T08:50:17;100532.03;;;-0.73;69.00
75604;BME280;64187;51.010;13.792;2023-12-04T08:55:16;100534.84;;;-0.75;68.62
75604;BME280;64187;51.010;13.792;2023-12-04T09:00:15;100524.22;;;-0.83;69.88
75604;BME280;64187;51.010;13.792;2023-12-04T09:05:14;100528.94;;;-0.44;69.25
75604;BME280;64187;51.010;13.792;2023-12-04T09:10:13;100525.94;;;-0.49;68.31
75604;BME280;64187;51.010;13.792;2023-12-04T09:15:32;100513.94;;;-0.70;68.22
75604;BME280;64187;51.010;13.792;2023-12-04T09:20:31;100516.97;;;-0.64;69.83
75604;BME280;64187;51.010;13.792;2023-12-04T09:25:30;100519.94;;;-0.59;69.27
75604;BME280;64187;51.010;13.792;2023-12-04T09:30:29;100510.66;;;-0.39;68.13
75604;BME280;64187;51.010;13.792;2023-12-04T09:35:29;100507.94;;;0.02;66.33
75604;BME280;64187;51.010;13.792;2023-12-04T09:40:28;100492.34;;;-0.34;67.86
75604;BME280;64187;51.010;13.792;2023-12-04T09:45:28;100482.69;;;-0.18;67.23
75604;BME280;64187;51.010;13.792;2023-12-04T09:50:27;100486.47;;;0.12;65.71
75604;BME280;64187;51.010;13.792;2023-12-04T09:55:27;100477.19;;;0.08;67.19
75604;BME280;64187;51.010;13.792;2023-12-04T10:00:27;100465.59;;;0.32;66.06
75604;BME280;64187;51.010;13.792;2023-12-04T10:05:26;100452.91;;;0.50;65.89
75604;BME280;64187;51.010;13.792;2023-12-04T10:10:25;100429.34;;;0.31;66.14
75604;BME280;64187;51.010;13.792;2023-12-04T10:15:24;100415.38;;;0.29;66.83
75604;BME280;64187;51.010;13.792;2023-12-04T10:20:22;100419.16;;;-0.13;66.47
75604;BME280;64187;51.010;13.792;2023-12-04T10:25:27;100407.13;;;0.07;66.74
75604;BME280;64187;51.010;13.792;2023-12-04T10:30:29;100394.53;;;0.01;66.69
75604;BME280;64187;51.010;13.792;2023-12-04T10:35:31;100389.03;;;0.03;65.95
75604;BME280;64187;51.010;13.792;2023-12-04T10:40:31;100388.84;;;0.04;66.28
75604;BME280;64187;51.010;13.792;2023-12-04T10:45:30;100377.22;;;-0.03;66.29
75604;BME280;64187;51.010;13.792;2023-12-04T10:50:31;100385.91;;;-0.09;65.73
75604;BME280;64187;51.010;13.792;2023-12-04T10:55:31;100386.69;;;0.08;66.50
75604;BME280;64187;51.010;13.792;2023-12-04T11:00:33;100379.22;;;0.03;67.16
75604;BME280;64187;51.010;13.792;2023-12-04T11:05:36;100371.00;;;-0.27;67.17
75604;BME280;64187;51.010;13.792;2023-12-04T11:10:44;100368.03;;;-0.32;66.90
75604;BME280;64187;51.010;13.792;2023-12-04T11:15:48;100366.25;;;0.00;66.77
75604;BME280;64187;51.010;13.792;2023-12-04T11:20:59;100367.59;;;-0.04;65.81
75604;BME280;64187;51.010;13.792;2023-12-04T11:25:58;100348.28;;;0.02;66.23
75604;BME280;64187;51.010;13.792;2023-12-04T11:30:59;100338.44;;;0.11;66.10
75604;BME280;64187;51.010;13.792;2023-12-04T11:36:11;100328.66;;;0.03;65.62
75604;BME280;64187;51.010;13.792;2023-12-04T11:46:22;100291.22;;;0.05;66.50
75604;BME280;64187;51.010;13.792;2023-12-04T11:51:47;100265.53;;;0.43;65.51
75604;BME280;64187;51.010;13.792;2023-12-04T11:56:57;100269.75;;;0.06;65.70
75604;BME280;64187;51.010;13.792;2023-12-04T12:01:58;100249.00;;;0.25;65.78
75604;BME280;64187;51.010;13.792;2023-12-04T12:06:57;100239.06;;;0.41;64.35
75604;BME280;64187;51.010;13.792;2023-12-04T12:11:56;100234.56;;;0.42;63.77
75604;BME280;64187;51.010;13.792;2023-12-04T12:16:59;100229.53;;;0.47;63.47
75604;BME280;64187;51.010;13.792;2023-12-04T12:21:58;100212.16;;;0.13;66.07
75604;BME280;64187;51.010;13.792;2023-12-04T12:26:59;100207.28;;;0.63;64.58
75604;BME280;64187;51.010;13.792;2023-12-04T12:31:58;100209.09;;;0.48;64.20
75604;BME280;64187;51.010;13.792;2023-12-04T12:36:57;100197.56;;;0.47;64.40
75604;BME280;64187;51.010;13.792;2023-12-04T12:41:56;100200.47;;;0.23;65.82
75604;BME280;64187;51.010;13.792;2023-12-04T12:46:55;100191.41;;;0.09;68.45
75604;BME280;64187;51.010;13.792;2023-12-04T12:51:54;100195.22;;;0.52;67.31
75604;BME280;64187;51.010;13.792;2023-12-04T12:56:54;100200.81;;;0.42;67.03
75604;BME280;64187;51.010;13.792;2023-12-04T13:01:54;100202.50;;;0.58;66.33
75604;BME280;64187;51.010;13.792;2023-12-04T13:06:56;100196.25;;;0.05;67.99
75604;BME280;64187;51.010;13.792;2023-12-04T13:11:54;100198.03;;;0.13;67.98
75604;BME280;64187;51.010;13.792;2023-12-04T13:16:54;100187.91;;;0.31;67.98
75604;BME280;64187;51.010;13.792;2023-12-04T13:21:57;100176.56;;;0.37;67.28
75604;BME280;64187;51.010;13.792;2023-12-04T13:26:56;100179.41;;;0.13;68.48
75604;BME280;64187;51.010;13.792;2023-12-04T13:31:56;100161.00;;;0.26;67.42
75604;BME280;64187;51.010;13.792;2023-12-04T13:36:55;100154.25;;;-0.08;69.76
75604;BME280;64187;51.010;13.792;2023-12-04T13:41:54;100138.78;;;-0.04;68.74
75604;BME280;64187;51.010;13.792;2023-12-04T13:47:11;100128.31;;;0.17;68.03
75604;BME280;64187;51.010;13.792;2023-12-04T13:52:11;100123.81;;;0.18;68.27
75604;BME280;64187;51.010;13.792;2023-12-04T13:57:09;100125.47;;;0.34;67.35
75604;BME280;64187;51.010;13.792;2023-12-04T14:02:14;100117.88;;;0.31;67.84
75604;BME280;64187;51.010;13.792;2023-12-04T14:07:14;100120.00;;;0.12;68.81
75604;BME280;64187;51.010;13.792;2023-12-04T14:12:14;100110.06;;;0.44;66.53
75604;BME280;64187;51.010;13.792;2023-12-04T14:17:14;100105.25;;;0.62;65.18
75604;BME280;64187;51.010;13.792;2023-12-04T14:22:14;100102.25;;;0.28;65.15
75604;BME280;64187;51.010;13.792;2023-12-04T14:27:13;100095.44;;;0.10;65.85
75604;BME280;64187;51.010;13.792;2023-12-04T14:32:12;100092.53;;;-0.03;65.97
75604;BME280;64187;51.010;13.792;2023-12-04T14:37:12;100099.53;;;-0.02;66.15
75604;BME280;64187;51.010;13.792;2023-12-04T14:42:11;100088.94;;;0.28;64.66
75604;BME280;64187;51.010;13.792;2023-12-04T14:47:11;100084.94;;;0.09;66.08
75604;BME280;64187;51.010;13.792;2023-12-04T14:52:10;100077.41;;;-0.26;66.84
75604;BME280;64187;51.010;13.792;2023-12-04T14:57:11;100070.75;;;-0.22;66.87
75604;BME280;64187;51.010;13.792;2023-12-04T15:02:17;100073.41;;;-0.22;66.65
75604;BME280;64187;51.010;13.792;2023-12-04T15:07:34;100067.34;;;-0.15;66.07
75604;BME280;64187;51.010;13.792;2023-12-04T15:12:52;100054.06;;;-0.15;66.74
75604;BME280;64187;51.010;13.792;2023-12-04T15:18:09;100054.53;;;-0.35;67.07
75604;BME280;64187;51.010;13.792;2023-12-04T15:23:27;100060.94;;;-0.44;67.30
75604;BME280;64187;51.010;13.792;2023-12-04T15:28:26;100063.47;;;-0.28;66.59
75604;BME280;64187;51.010;13.792;2023-12-04T15:33:26;100046.38;;;-0.33;66.85
75604;BME280;64187;51.010;13.792;2023-12-04T15:38:27;100041.56;;;-0.30;66.63
75604;BME280;64187;51.010;13.792;2023-12-04T15:43:27;100031.63;;;-0.36;67.57
75604;BME280;64187;51.010;13.792;2023-12-04T15:48:26;100023.88;;;-0.08;65.57
75604;BME280;64187;51.010;13.792;2023-12-04T15:53:25;100017.50;;;0.02;64.77
75604;BME280;64187;51.010;13.792;2023-12-04T15:58:24;100022.16;;;-0.01;65.42
75604;BME280;64187;51.010;13.792;2023-12-04T16:03:23;100006.53;;;-0.18;65.72
75604;BME280;64187;51.010;13.792;2023-12-04T16:08:22;100009.03;;;-0.17;66.04
75604;BME280;64187;51.010;13.792;2023-12-04T16:13:21;100005.72;;;-0.19;67.38
75604;BME280;64187;51.010;13.792;2023-12-04T16:18:20;99990.88;;;0.02;66.30
75604;BME280;64187;51.010;13.792;2023-12-04T16:23:19;99994.31;;;-0.28;66.78
75604;BME280;64187;51.010;13.792;2023-12-04T16:28:18;99999.50;;;0.04;65.60
75604;BME280;64187;51.010;13.792;2023-12-04T16:33:17;99984.38;;;0.04;66.08
75604;BME280;64187;51.010;13.792;2023-12-04T16:38:15;99981.81;;;0.11;65.96
75604;BME280;64187;51.010;13.792;2023-12-04T16:43:14;99986.38;;;0.02;66.90
75604;BME280;64187;51.010;13.792;2023-12-04T16:48:13;99990.06;;;0.01;67.91
75604;BME280;64187;51.010;13.792;2023-12-04T16:53:12;99987.28;;;-0.06;67.98
75604;BME280;64187;51.010;13.792;2023-12-04T16:58:11;99989.16;;;0.09;67.44
75604;BME280;64187;51.010;13.792;2023-12-04T17:03:10;99977.75;;;-0.15;68.30
75604;BME280;64187;51.010;13.792;2023-12-04T17:08:09;99975.75;;;0.17;66.95
75604;BME280;64187;51.010;13.792;2023-12-04T17:13:08;99974.63;;;-0.18;67.84
75604;BME280;64187;51.010;13.792;2023-12-04T17:18:07;99964.97;;;-0.57;68.13
75604;BME280;64187;51.010;13.792;2023-12-04T17:23:09;99956.91;;;-0.26;66.76
75604;BME280;64187;51.010;13.792;2023-12-04T17:28:08;99957.97;;;0.03;66.88
75604;BME280;64187;51.010;13.792;2023-12-04T17:33:08;99955.84;;;-0.02;68.03
75604;BME280;64187;51.010;13.792;2023-12-04T17:38:06;99944.63;;;-0.27;68.46
75604;BME280;64187;51.010;13.792;2023-12-04T17:43:06;99955.66;;;-0.53;69.15
75604;BME280;64187;51.010;13.792;2023-12-04T17:48:05;99939.91;;;-0.40;69.11
75604;BME280;64187;51.010;13.792;2023-12-04T17:53:04;99947.28;;;-0.27;67.77
75604;BME280;64187;51.010;13.792;2023-12-04T17:58:03;99940.03;;;-0.33;68.06
75604;BME280;64187;51.010;13.792;2023-12-04T18:03:02;99936.06;;;-0.23;67.16
75604;BME280;64187;51.010;13.792;2023-12-04T18:08:02;99931.16;;;-0.11;68.23
75604;BME280;64187;51.010;13.792;2023-12-04T18:13:01;99931.03;;;-0.17;67.65
75604;BME280;64187;51.010;13.792;2023-12-04T18:18:00;99908.13;;;0.11;66.24
75604;BME280;64187;51.010;13.792;2023-12-04T18:22:59;99920.13;;;-0.23;67.48
75604;BME280;64187;51.010;13.792;2023-12-04T18:27:58;99926.84;;;-0.12;67.28
75604;BME280;64187;51.010;13.792;2023-12-04T18:32:58;99932.44;;;-0.22;66.66
75604;BME280;64187;51.010;13.792;2023-12-04T18:38:05;99933.34;;;-0.14;66.65
75604;BME280;64187;51.010;13.792;2023-12-04T18:43:06;99916.34;;;-0.43;68.44
75604;BME280;64187;51.010;13.792;2023-12-04T18:48:08;99922.31;;;-0.41;68.24
75604;BME280;64187;51.010;13.792;2023-12-04T18:53:07;99918.91;;;-0.35;68.38
75604;BME280;64187;51.010;13.792;2023-12-04T18:58:09;99912.34;;;-0.24;67.82
75604;BME280;64187;51.010;13.792;2023-12-04T19:03:12;99901.41;;;-0.44;67.99
75604;BME280;64187;51.010;13.792;2023-12-04T19:08:12;99893.22;;;-0.43;69.12
75604;BME280;64187;51.010;13.792;2023-12-04T19:13:10;99885.81;;;-0.47;69.17
75604;BME280;64187;51.010;13.792;2023-12-04T19:18:09;99884.34;;;-0.64;69.63
75604;BME280;64187;51.010;13.792;2023-12-04T19:23:10;99899.19;;;-0.55;68.68
75604;BME280;64187;51.010;13.792;2023-12-04T19:28:09;99888.19;;;-0.23;68.48
75604;BME280;64187;51.010;13.792;2023-12-04T19:33:07;99883.63;;;-0.29;68.39
75604;BME280;64187;51.010;13.792;2023-12-04T19:38:16;99891.22;;;-0.40;69.21
75604;BME280;64187;51.010;13.792;2023-12-04T19:43:18;99889.78;;;-0.28;67.90
75604;BME280;64187;51.010;13.792;2023-12-04T19:48:19;99889.13;;;0.14;67.15
75604;BME280;64187;51.010;13.792;2023-12-04T19:53:18;99881.34;;;-0.17;68.20
75604;BME280;64187;51.010;13.792;2023-12-04T19:58:17;99845.47;;;-0.36;69.17
75604;BME280;64187;51.010;13.792;2023-12-04T20:03:16;99840.16;;;-0.36;69.07
75604;BME280;64187;51.010;13.792;2023-12-04T20:08:15;99838.56;;;-0.60;69.72
75604;BME280;64187;51.010;13.792;2023-12-04T20:13:14;99833.00;;;-0.50;69.20
75604;BME280;64187;51.010;13.792;2023-12-04T20:18:13;99827.63;;;2.96;93.84
75604;BME280;64187;51.010;13.792;2023-12-04T20:23:12;99829.03;;;1.62;62.59
75604;BME280;64187;51.010;13.792;2023-12-04T20:28:13;99835.22;;;0.63;65.16
75604;BME280;64187;51.010;13.792;2023-12-04T20:33:15;99828.88;;;-0.23;67.81
75604;BME280;64187;51.010;13.792;2023-12-04T20:38:19;99828.34;;;-0.33;69.38
75604;BME280;64187;51.010;13.792;2023-12-04T20:43:17;99815.50;;;-0.59;71.02
75604;BME280;64187;51.010;13.792;2023-12-04T20:48:17;99820.06;;;-0.24;69.43
75604;BME280;64187;51.010;13.792;2023-12-04T20:53:16;99803.41;;;-0.47;69.38
75604;BME280;64187;51.010;13.792;2023-12-04T20:58:16;99795.22;;;-0.31;69.20
75604;BME280;64187;51.010;13.792;2023-12-04T21:03:15;99789.38;;;-0.56;69.91
75604;BME280;64187;51.010;13.792;2023-12-04T21:08:15;99780.56;;;-0.27;69.57
75604;BME280;64187;51.010;13.792;2023-12-04T21:13:14;99784.69;;;-0.39;69.41
75604;BME280;64187;51.010;13.792;2023-12-04T21:18:12;99767.38;;;-0.50;70.03
75604;BME280;64187;51.010;13.792;2023-12-04T21:23:12;99768.38;;;-0.51;70.46
75604;BME280;64187;51.010;13.792;2023-12-04T21:28:10;99763.16;;;-0.44;69.99
75604;BME280;64187;51.010;13.792;2023-12-04T21:33:09;99769.13;;;-0.06;68.80
75604;BME280;64187;51.010;13.792;2023-12-04T21:38:09;99748.19;;;-0.45;69.80
75604;BME280;64187;51.010;13.792;2023-12-04T21:43:09;99759.81;;;-0.16;69.69
75604;BME280;64187;51.010;13.792;2023-12-04T21:48:08;99760.75;;;-0.39;69.88
75604;BME280;64187;51.010;13.792;2023-12-04T21:53:08;99754.34;;;-0.30;69.94
75604;BME280;64187;51.010;13.792;2023-12-04T21:58:06;99743.88;;;-0.31;70.92
75604;BME280;64187;51.010;13.792;2023-12-04T22:03:06;99763.69;;;-0.34;71.48
75604;BME280;64187;51.010;13.792;2023-12-04T22:08:05;99761.41;;;-0.52;70.88
75604;BME280;64187;51.010;13.792;2023-12-04T22:13:04;99756.28;;;-0.53;71.08
75604;BME280;64187;51.010;13.792;2023-12-04T22:18:03;99745.50;;;-0.15;69.74
75604;BME280;64187;51.010;13.792;2023-12-04T22:23:03;99747.88;;;-0.20;70.74
75604;BME280;64187;51.010;13.792;2023-12-04T22:28:03;99738.97;;;-0.13;70.39
75604;BME280;64187;51.010;13.792;2023-12-04T22:33:02;99736.97;;;-0.26;70.47
75604;BME280;64187;51.010;13.792;2023-12-04T22:38:01;99738.31;;;-0.36;70.53
75604;BME280;64187;51.010;13.792;2023-12-04T22:43:00;99712.56;;;-0.14;69.73
75604;BME280;64187;51.010;13.792;2023-12-04T22:47:59;99720.06;;;-0.03;69.06
75604;BME280;64187;51.010;13.792;2023-12-04T22:52:58;99718.19;;;-0.24;70.50
75604;BME280;64187;51.010;13.792;2023-12-04T22:58:06;99718.88;;;-0.15;70.21
75604;BME280;64187;51.010;13.792;2023-12-04T23:03:05;99732.56;;;-0.18;70.18
75604;BME280;64187;51.010;13.792;2023-12-04T23:08:04;99731.25;;;-0.08;69.44
75604;BME280;64187;51.010;13.792;2023-12-04T23:13:04;99715.81;;;-0.34;69.98
75604;BME280;64187;51.010;13.792;2023-12-04T23:18:04;99703.41;;;0.10;69.15
75604;BME280;64187;51.010;13.792;2023-12-04T23:23:04;99704.50;;;-0.21;69.97
75604;BME280;64187;51.010;13.792;2023-12-04T23:28:03;99725.13;;;-0.08;70.94
75604;BME280;64187;51.010;13.792;2023-12-04T23:33:03;99724.22;;;-0.15;69.99
75604;BME280;64187;51.010;13.792;2023-12-04T23:38:02;99719.56;;;-0.28;70.71
75604;BME280;64187;51.010;13.792;2023-12-04T23:43:01;99713.75;;;-0.02;69.47
75604;BME280;64187;51.010;13.792;2023-12-04T23:48:01;99684.06;;;-0.20;70.21
75604;BME280;64187;51.010;13.792;2023-12-04T23:52:59;99687.66;;;-0.28;70.69
75604;BME280;64187;51.010;13.792;2023-12-04T23:57:58;99693.75;;;-0.13;70.25
